Time;durP1;ratioP1;P1;durP2;ratioP2;P2;SDS_P1;SDS_P2;PMS_P1;PMS_P2;Temp;Humidity;BMP_temperature;BMP_pressure;BME280_temperature;BME280_humidity;BME280_pressure;Samples;Min_cycle;Max_cycle;Signal;HPM_P1;HPM_P2
2022/06/22 00:02:11;;;;;;;2.47;1.00;;;22.50;51.10;;;;;;4925002;28;87102;-83
2022/06/22 00:04:43;;;;;;;2.65;1.40;;;22.50;51.10;;;;;;4923825;28;88032;-83
2022/06/22 00:07:36;;;;;;;1.60;1.17;;;22.40;51.10;;;;;;4924947;28;86936;-82
2022/06/22 00:10:19;;;;;;;2.65;1.38;;;22.40;51.00;;;;;;4925223;28;87890;-83
2022/06/22 00:12:50;;;;;;;1.63;1.13;;;22.50;51.00;;;;;;4925850;28;87307;-82
2022/06/22 00:15:56;;;;;;;2.72;1.20;;;22.40;51.10;;;;;;4924723;28;87997;-82
2022/06/22 00:18:29;;;;;;;2.00;1.25;;;22.40;51.10;;;;;;4926477;28;87965;-82
2022/06/22 00:21:04;;;;;;;1.85;1.17;;;22.40;51.00;;;;;;4922088;28;88081;-83
2022/06/22 00:23:52;;;;;;;1.55;1.33;;;22.50;51.30;;;;;;4924125;28;87011;-83
2022/06/22 00:26:34;;;;;;;2.53;1.27;;;22.40;51.20;;;;;;4924004;28;89005;-82
2022/06/22 00:29:09;;;;;;;1.50;1.10;;;22.40;51.20;;;;;;4921043;28;89226;-82
2022/06/22 00:31:43;;;;;;;1.85;1.08;;;22.40;51.20;;;;;;4926505;28;87364;-82
2022/06/22 00:34:11;;;;;;;3.00;1.30;;;22.50;51.00;;;;;;4921709;28;87664;-82
2022/06/22 00:36:40;;;;;;;2.05;1.52;;;22.40;51.00;;;;;;4925529;28;88337;-82
2022/06/22 00:39:23;;;;;;;1.20;1.07;;;22.40;51.00;;;;;;4930177;28;86953;-83
2022/06/22 00:42:14;;;;;;;1.50;1.13;;;22.40;51.70;;;;;;4923350;28;87500;-85
2022/06/22 00:44:52;;;;;;;1.83;1.30;;;22.40;51.00;;;;;;4926461;28;86935;-82
2022/06/22 00:47:27;;;;;;;1.33;1.00;;;22.40;51.10;;;;;;4928657;28;88333;-82
2022/06/22 00:50:01;;;;;;;2.05;1.38;;;22.40;51.10;;;;;;4926776;28;87627;-82
2022/06/22 00:52:37;;;;;;;2.83;1.38;;;22.40;51.10;;;;;;4927734;28;87911;-83
2022/06/22 00:55:14;;;;;;;1.92;1.30;;;22.40;51.10;;;;;;4927674;28;87319;-83
2022/06/22 00:57:45;;;;;;;2.30;1.33;;;22.40;50.90;;;;;;4926542;28;87930;-81
2022/06/22 01:00:20;;;;;;;2.85;1.20;;;22.40;50.90;;;;;;4928857;28;87860;-84
2022/06/22 01:02:58;;;;;;;1.90;1.27;;;22.40;50.90;;;;;;4924023;28;87907;-83
2022/06/22 01:05:42;;;;;;;2.25;1.00;;;22.40;50.90;;;;;;4926989;28;87838;-83
2022/06/22 01:08:19;;;;;;;1.90;1.00;;;22.40;50.90;;;;;;4924893;28;87999;-83
2022/06/22 01:14:12;;;;;;;1.27;1.05;;;22.40;50.90;;;;;;4926425;28;87113;-83
2022/06/22 01:16:43;;;;;;;1.17;0.93;;;22.40;51.00;;;;;;4910096;28;88314;-82
2022/06/22 01:19:34;;;;;;;1.73;1.02;;;22.40;50.90;;;;;;4924449;28;88663;-82
2022/06/22 01:22:26;;;;;;;1.80;1.20;;;22.40;50.90;;;;;;4919709;28;91019;-81
2022/06/22 01:25:19;;;;;;;1.20;0.90;;;22.40;51.00;;;;;;4907833;28;87503;-84
2022/06/22 01:27:46;;;;;;;1.60;1.20;;;22.40;51.10;;;;;;4928207;28;87243;-81
2022/06/22 01:30:30;;;;;;;1.80;1.08;;;22.40;51.00;;;;;;4924918;28;87587;-88
2022/06/22 01:33:05;;;;;;;1.10;1.00;;;22.40;51.10;;;;;;4924497;28;88338;-83
2022/06/22 01:35:33;;;;;;;1.23;0.73;;;22.40;51.20;;;;;;4925533;28;87170;-90
2022/06/22 01:38:18;;;;;;;1.35;1.00;;;22.30;51.00;;;;;;4926814;28;86717;-88
2022/06/22 01:41:09;;;;;;;1.65;1.00;;;22.40;51.10;;;;;;4923473;28;87715;-89
2022/06/22 01:43:45;;;;;;;1.35;0.90;;;22.30;51.10;;;;;;4924976;28;88377;-82
2022/06/22 01:46:16;;;;;;;2.95;1.27;;;22.40;51.10;;;;;;4921914;28;88515;-83
2022/06/22 01:49:09;;;;;;;1.10;1.00;;;22.40;51.20;;;;;;4921753;28;88196;-86
2022/06/22 01:52:12;;;;;;;1.63;1.00;;;22.40;51.20;;;;;;4926640;28;88963;-82
2022/06/22 01:54:47;;;;;;;1.08;0.98;;;22.40;51.30;;;;;;4925473;28;88692;-83
2022/06/22 01:57:30;;;;;;;1.00;0.90;;;22.30;51.20;;;;;;4928600;28;87033;-82
2022/06/22 02:00:04;;;;;;;1.40;1.00;;;22.30;51.30;;;;;;4926621;28;87592;-83
2022/06/22 02:02:54;;;;;;;1.27;1.10;;;22.30;51.40;;;;;;4924473;28;87632;-83
2022/06/22 02:05:19;;;;;;;1.25;1.15;;;22.30;51.40;;;;;;4925102;28;86722;-82
2022/06/22 02:07:54;;;;;;;1.13;0.93;;;22.40;51.40;;;;;;4924367;28;87702;-82
2022/06/22 02:10:41;;;;;;;2.65;1.30;;;22.30;52.10;;;;;;4925933;28;87520;-83
2022/06/22 02:13:28;;;;;;;1.42;1.13;;;22.30;51.40;;;;;;4925338;28;89047;-83
2022/06/22 02:16:05;;;;;;;1.88;1.17;;;22.30;51.30;;;;;;4924247;28;88343;-82
2022/06/22 02:18:34;;;;;;;1.67;1.35;;;22.30;51.30;;;;;;4926416;28;87332;-82
2022/06/22 02:21:14;;;;;;;1.10;0.90;;;22.30;51.50;;;;;;4924417;28;87790;-82
2022/06/22 02:23:39;;;;;;;1.20;0.95;;;22.30;51.40;;;;;;4925050;28;87775;-84
2022/06/22 02:26:14;;;;;;;0.98;0.88;;;22.30;51.40;;;;;;4921467;28;88494;-82
2022/06/22 02:28:40;;;;;;;1.20;1.10;;;22.30;51.40;;;;;;4921906;28;87651;-82
2022/06/22 02:31:12;;;;;;;2.22;1.10;;;22.30;51.30;;;;;;4922617;28;87055;-84
2022/06/22 02:33:41;;;;;;;1.75;1.00;;;22.30;51.40;;;;;;4921431;28;90495;-84
2022/06/22 02:36:09;;;;;;;1.30;1.20;;;22.30;51.50;;;;;;4927857;28;87836;-86
2022/06/22 02:38:36;;;;;;;1.73;0.90;;;22.30;51.50;;;;;;4926119;28;87895;-80
2022/06/22 02:46:42;;;;;;;1.33;0.90;;;22.30;51.40;;;;;;4923022;28;88029;-83
2022/06/22 02:49:17;;;;;;;1.35;1.10;;;22.30;51.40;;;;;;4923874;28;87964;-83
2022/06/22 02:51:46;;;;;;;1.48;1.13;;;22.30;51.40;;;;;;4926428;28;87666;-82
2022/06/22 02:54:28;;;;;;;1.97;1.00;;;22.30;51.40;;;;;;4923876;28;88179;-81
2022/06/22 02:57:25;;;;;;;1.63;1.17;;;22.30;52.00;;;;;;4939113;28;89226;-85
2022/06/22 02:59:52;;;;;;;1.90;1.08;;;22.30;51.50;;;;;;4908928;28;87504;-82
2022/06/22 03:02:22;;;;;;;2.13;1.10;;;22.30;51.50;;;;;;4922392;28;88060;-83
2022/06/22 03:04:49;;;;;;;1.38;1.08;;;22.30;51.40;;;;;;4925062;28;88899;-85
2022/06/22 03:07:17;;;;;;;1.67;1.10;;;22.30;51.30;;;;;;4924076;28;88334;-83
2022/06/22 03:09:44;;;;;;;1.77;1.10;;;22.30;51.50;;;;;;4925101;28;87981;-85
2022/06/22 03:12:13;;;;;;;1.90;0.80;;;22.30;51.40;;;;;;4925336;28;88005;-82
2022/06/22 03:14:50;;;;;;;0.80;0.80;;;22.20;51.30;;;;;;4925618;28;90155;-84
2022/06/22 03:17:22;;;;;;;2.03;1.30;;;22.30;51.50;;;;;;4907194;28;90442;-83
2022/06/22 03:19:59;;;;;;;1.10;1.00;;;22.30;51.40;;;;;;4928513;28;86937;-84
2022/06/22 03:22:31;;;;;;;1.35;0.98;;;22.30;51.50;;;;;;4907143;28;89640;-86
2022/06/22 03:25:24;;;;;;;2.03;0.90;;;22.30;51.50;;;;;;4922946;28;87918;-83
2022/06/22 03:27:54;;;;;;;1.48;0.90;;;22.30;51.40;;;;;;4906047;28;90413;-83
2022/06/22 03:30:25;;;;;;;1.20;0.77;;;22.20;51.60;;;;;;4924674;28;88713;-82
2022/06/22 03:33:11;;;;;;;1.40;1.30;;;22.20;51.50;;;;;;4921629;28;87539;-84
2022/06/22 03:35:48;;;;;;;1.45;1.02;;;22.30;51.50;;;;;;4920238;28;88694;-81
2022/06/22 03:38:25;;;;;;;2.38;1.00;;;22.30;51.50;;;;;;4923157;28;86961;-83
2022/06/22 03:41:02;;;;;;;1.23;1.00;;;22.20;51.50;;;;;;4925874;28;87118;-83
2022/06/22 03:43:33;;;;;;;1.33;1.00;;;22.20;51.40;;;;;;4925464;28;87876;-84
2022/06/22 03:46:21;;;;;;;1.17;0.85;;;22.20;51.40;;;;;;4924451;28;87923;-83
2022/06/22 03:49:00;;;;;;;2.25;1.15;;;22.20;51.50;;;;;;4925211;28;87355;-82
2022/06/22 03:51:48;;;;;;;1.17;1.08;;;22.30;51.70;;;;;;4937441;28;87771;-82
2022/06/22 03:54:36;;;;;;;1.55;1.10;;;22.30;51.70;;;;;;4924998;28;87175;-83
2022/06/22 03:57:07;;;;;;;1.00;0.80;;;22.30;51.70;;;;;;4929157;28;91451;-82
2022/06/22 03:59:38;;;;;;;1.25;1.00;;;22.30;51.70;;;;;;4922918;28;88636;-82
2022/06/22 04:02:04;;;;;;;1.10;1.00;;;22.30;51.70;;;;;;4923583;28;87876;-90
2022/06/22 04:04:30;;;;;;;1.35;1.00;;;22.20;51.70;;;;;;4924093;28;87640;-82
2022/06/22 04:06:56;;;;;;;1.33;1.20;;;22.20;51.70;;;;;;4926176;28;88143;-82
2022/06/22 04:09:25;;;;;;;1.42;1.20;;;22.20;51.80;;;;;;4923747;28;88054;-85
2022/06/22 04:11:50;;;;;;;1.70;1.20;;;22.20;51.80;;;;;;4926055;28;86827;-82
2022/06/22 04:14:47;;;;;;;1.05;0.93;;;22.20;51.80;;;;;;4928252;28;86472;-87
2022/06/22 04:17:41;;;;;;;1.30;1.10;;;22.20;51.90;;;;;;4909831;28;90714;-84
2022/06/22 04:20:23;;;;;;;0.98;0.80;;;22.20;51.90;;;;;;4927127;28;87454;-88
2022/06/22 04:22:57;;;;;;;1.25;0.98;;;22.20;51.70;;;;;;4924522;28;88946;-83
2022/06/22 04:25:36;;;;;;;1.42;1.02;;;22.20;51.70;;;;;;4927211;28;87420;-82
2022/06/22 04:28:05;;;;;;;1.15;1.05;;;22.20;51.80;;;;;;4927282;28;88836;-82
2022/06/22 04:30:33;;;;;;;;;;;22.20;51.90;;;;;;4926267;28;88056;-83
2022/06/22 04:33:20;;;;;;;1.70;1.17;;;22.20;51.90;;;;;;4911488;28;88459;-82
2022/06/22 04:36:24;;;;;;;1.75;1.00;;;22.20;51.80;;;;;;4929511;28;87471;-83
2022/06/22 04:38:57;;;;;;;1.73;1.10;;;22.30;51.90;;;;;;4926249;28;87868;-87
2022/06/22 04:41:30;;;;;;;1.65;1.23;;;22.30;51.80;;;;;;4927051;28;87993;-84
2022/06/22 04:43:58;;;;;;;1.55;1.00;;;22.30;51.70;;;;;;4925788;28;87061;-83
2022/06/22 04:46:45;;;;;;;1.42;1.00;;;22.30;51.70;;;;;;4927006;28;87702;-84
2022/06/22 04:49:22;;;;;;;1.25;0.90;;;22.30;51.70;;;;;;4925684;28;88729;-84
2022/06/22 04:51:53;;;;;;;1.20;0.82;;;22.30;51.50;;;;;;4929281;28;87783;-84
2022/06/22 04:54:30;;;;;;;0.95;0.82;;;22.30;51.60;;;;;;4929175;28;87710;-82
2022/06/22 04:57:01;;;;;;;1.55;0.82;;;22.30;51.60;;;;;;4929968;28;88367;-82
2022/06/22 04:59:28;;;;;;;1.73;1.10;;;22.30;51.50;;;;;;4926613;28;88365;-81
2022/06/22 05:02:06;;;;;;;1.25;0.93;;;22.30;51.70;;;;;;4929540;28;87348;-82
2022/06/22 05:04:42;;;;;;;1.05;0.95;;;22.30;51.70;;;;;;4923820;28;87697;-88
2022/06/22 05:07:35;;;;;;;1.05;0.95;;;22.40;51.80;;;;;;4929528;28;86660;-89
2022/06/22 05:10:14;;;;;;;1.70;1.05;;;22.40;51.70;;;;;;4927318;28;87579;-83
2022/06/22 05:13:04;;;;;;;1.40;1.23;;;22.40;51.80;;;;;;4927658;28;87381;-83
2022/06/22 05:15:34;;;;;;;;;;;22.40;51.70;;;;;;4926645;28;88328;-83
2022/06/22 05:18:03;;;;;;;1.10;0.88;;;22.40;51.90;;;;;;4925002;28;87154;-83
2022/06/22 05:20:36;;;;;;;0.93;0.73;;;22.40;51.90;;;;;;4923200;28;87720;-85
2022/06/22 05:23:04;;;;;;;0.80;0.80;;;22.40;52.00;;;;;;4927408;28;88581;-84
2022/06/22 05:25:30;;;;;;;1.33;0.90;;;22.40;51.90;;;;;;4925755;28;87442;-82
2022/06/22 05:28:00;;;;;;;1.25;1.00;;;22.40;51.90;;;;;;4926042;28;87026;-83
2022/06/22 05:30:39;;;;;;;2.00;1.10;;;22.40;51.80;;;;;;4908903;28;88710;-86
2022/06/22 05:33:09;;;;;;;1.35;1.00;;;22.40;52.00;;;;;;4934103;28;89299;-83
2022/06/22 05:35:40;;;;;;;1.05;0.95;;;22.40;52.10;;;;;;4924423;28;87768;-82
2022/06/22 05:38:09;;;;;;;1.02;0.93;;;22.40;52.00;;;;;;4928727;28;87649;-83
2022/06/22 05:40:37;;;;;;;1.60;0.90;;;22.40;52.20;;;;;;4928015;28;88668;-87
2022/06/22 05:43:04;;;;;;;0.90;0.80;;;22.40;52.20;;;;;;4928679;28;91284;-87
2022/06/22 05:45:49;;;;;;;1.00;0.90;;;22.40;52.10;;;;;;4926071;28;87521;-84
2022/06/22 05:48:26;;;;;;;1.35;1.00;;;22.40;52.30;;;;;;4927444;28;87468;-83
2022/06/22 05:51:13;;;;;;;1.00;0.90;;;22.40;52.30;;;;;;4925139;28;87796;-83
2022/06/22 05:53:47;;;;;;;0.80;0.77;;;22.50;52.40;;;;;;4924389;28;87524;-83
2022/06/22 05:56:54;;;;;;;1.13;0.80;;;22.40;52.20;;;;;;4927543;28;87856;-82
2022/06/22 05:59:27;;;;;;;1.50;1.10;;;22.50;52.50;;;;;;4924888;28;86846;-84
2022/06/22 06:02:12;;;;;;;1.02;0.77;;;22.50;52.40;;;;;;4929116;28;87709;-84
2022/06/22 06:04:47;;;;;;;1.00;0.90;;;22.50;52.40;;;;;;4927671;28;88279;-85
2022/06/22 06:07:18;;;;;;;1.25;0.90;;;22.50;52.50;;;;;;4927329;28;88766;-89
2022/06/22 06:09:45;;;;;;;5.78;2.83;;;22.50;52.90;;;;;;4931478;28;86961;-88
2022/06/22 06:12:16;;;;;;;29.98;12.43;;;22.50;52.80;;;;;;4929680;28;87369;-90
2022/06/22 06:14:48;;;;;;;50.20;20.77;;;22.50;53.10;;;;;;4927385;28;87844;-90
2022/06/22 06:17:28;;;;;;;39.85;15.23;;;22.50;53.20;;;;;;4928671;28;87045;-89
2022/06/22 06:19:56;;;;;;;27.60;11.05;;;22.50;52.80;;;;;;4930925;28;86970;-89
2022/06/22 06:22:22;;;;;;;43.20;17.63;;;22.60;52.20;;;;;;4937026;28;88171;-84
2022/06/22 06:27:46;;;;;;;72.10;27.10;;;22.50;52.20;;;;;;4929084;28;86935;-89
2022/06/22 06:30:20;;;;;;;70.90;26.27;;;22.40;52.20;;;;;;4930599;28;86992;-81
2022/06/22 06:32:59;;;;;;;68.03;26.83;;;22.40;52.30;;;;;;4927443;28;88448;-84
2022/06/22 06:36:02;;;;;;;80.82;29.38;;;22.40;52.30;;;;;;4925262;28;88682;-86
2022/06/22 06:38:38;;;;;;;57.72;25.42;;;22.40;52.60;;;;;;4926825;28;87733;-81
2022/06/22 06:41:10;;;;;;;57.03;21.90;;;22.40;52.90;;;;;;4929316;28;87371;-81
2022/06/22 06:43:57;;;;;;;51.88;22.23;;;22.40;52.90;;;;;;5058731;22;88866;-64
2022/06/22 06:46:30;;;;;;;44.35;17.90;;;22.40;53.00;;;;;;4953054;28;90365;-63
2022/06/22 06:49:15;;;;;;;36.67;15.43;;;22.40;53.10;;;;;;4950563;28;87670;-63
2022/06/22 06:51:47;;;;;;;31.13;13.73;;;22.40;53.10;;;;;;4969669;28;86998;-64
2022/06/22 06:54:17;;;;;;;34.33;16.27;;;22.40;53.20;;;;;;4969106;28;88033;-64
2022/06/22 06:56:54;;;;;;;28.55;11.63;;;22.40;53.20;;;;;;4949674;28;88528;-67
2022/06/22 06:59:25;;;;;;;31.25;11.88;;;22.40;53.40;;;;;;4965582;28;88696;-64
2022/06/22 07:01:51;;;;;;;29.05;12.40;;;22.40;53.30;;;;;;4950917;28;90107;-64
2022/06/22 07:04:28;;;;;;;32.45;11.95;;;22.40;53.20;;;;;;4969070;28;88239;-65
2022/06/22 07:07:22;;;;;;;30.80;11.57;;;22.40;53.30;;;;;;4967534;28;90574;-68
2022/06/22 07:09:51;;;;;;;28.05;10.70;;;22.40;53.40;;;;;;4951006;28;87831;-65
2022/06/22 07:12:47;;;;;;;27.00;9.82;;;22.40;53.40;;;;;;4961892;28;88013;-64
2022/06/22 07:15:38;;;;;;;23.65;9.00;;;22.40;53.40;;;;;;4967665;28;88181;-65
2022/06/22 07:18:13;;;;;;;30.70;9.68;;;22.40;53.40;;;;;;4918174;28;87013;-68
2022/06/22 07:20:44;;;;;;;36.47;10.48;;;22.40;53.40;;;;;;4945952;28;87042;-65
2022/06/22 07:23:39;;;;;;;42.22;12.88;;;22.40;53.50;;;;;;4950515;28;90956;-68
2022/06/22 07:26:17;;;;;;;35.80;11.20;;;22.40;53.70;;;;;;4964313;28;90099;-68
2022/06/22 07:28:52;;;;;;;43.22;10.70;;;22.40;53.60;;;;;;4968085;28;89288;-69
2022/06/22 07:31:30;;;;;;;39.30;10.75;;;22.40;53.40;;;;;;4949798;28;87701;-66
2022/06/22 07:34:04;;;;;;;33.60;9.10;;;22.40;53.40;;;;;;4967011;28;88040;-68
2022/06/22 07:36:37;;;;;;;27.55;8.68;;;22.50;53.40;;;;;;4950941;28;92338;-65
2022/06/22 07:39:23;;;;;;;24.73;6.88;;;22.40;53.20;;;;;;4968329;28;87900;-66
2022/06/22 07:41:48;;;;;;;22.15;6.68;;;22.40;53.00;;;;;;4968606;28;88011;-69
2022/06/22 07:44:23;;;;;;;25.63;7.05;;;22.40;52.90;;;;;;4967306;28;88020;-65
2022/06/22 07:46:55;;;;;;;16.42;5.50;;;22.40;53.00;;;;;;4954745;28;89296;-66
2022/06/22 07:49:30;;;;;;;14.73;5.55;;;22.40;52.50;;;;;;4957682;28;91420;-68
2022/06/22 07:51:58;;;;;;;11.73;4.90;;;22.40;52.20;;;;;;4971052;28;88897;-64
2022/06/22 07:54:33;;;;;;;12.68;4.97;;;22.40;52.40;;;;;;4954894;28;89901;-64
2022/06/22 07:57:05;;;;;;;14.13;3.53;;;22.40;52.30;;;;;;4965566;28;88097;-63
2022/06/22 07:59:59;;;;;;;11.07;3.67;;;22.40;52.20;;;;;;4970970;28;90247;-65
2022/06/22 08:02:32;;;;;;;10.77;3.60;;;22.40;52.40;;;;;;4948778;28;87593;-65
2022/06/22 08:05:10;;;;;;;15.05;4.10;;;22.40;52.30;;;;;;4953473;28;89976;-65
2022/06/22 08:07:50;;;;;;;13.52;3.63;;;22.50;52.70;;;;;;4968940;28;90853;-63
2022/06/22 08:10:21;;;;;;;11.25;3.25;;;22.40;52.50;;;;;;4986433;28;89631;-65
2022/06/22 08:13:10;;;;;;;12.32;3.53;;;22.40;52.50;;;;;;4970467;28;88125;-67
2022/06/22 08:15:42;;;;;;;12.38;3.90;;;22.40;52.80;;;;;;4972411;28;88144;-64
2022/06/22 08:18:08;;;;;;;11.07;3.67;;;22.50;53.20;;;;;;4971716;28;89640;-64
2022/06/22 08:20:38;;;;;;;15.32;4.18;;;22.40;52.70;;;;;;4970416;28;91921;-67
2022/06/22 08:23:06;;;;;;;11.13;3.38;;;22.40;53.00;;;;;;4954440;28;87762;-65
2022/06/22 08:25:33;;;;;;;9.70;3.35;;;22.50;53.10;;;;;;4971580;28;87371;-63
2022/06/22 08:28:02;;;;;;;12.32;3.85;;;22.50;53.30;;;;;;4950606;28;91237;-63
2022/06/22 08:30:29;;;;;;;15.18;3.85;;;22.50;53.40;;;;;;4951784;28;90997;-65
2022/06/22 08:33:20;;;;;;;12.50;3.58;;;22.50;53.50;;;;;;4971241;28;87339;-63
2022/06/22 08:35:52;;;;;;;12.68;3.75;;;22.50;53.80;;;;;;4969809;28;88392;-64
2022/06/22 08:38:26;;;;;;;10.80;3.55;;;22.50;53.60;;;;;;4961814;28;91073;-67
2022/06/22 08:41:54;;;;;;;8.52;2.85;;;22.50;54.00;;;;;;4971173;28;87752;-64
2022/06/22 08:44:46;;;;;;;12.98;3.10;;;22.50;52.90;;;;;;4916199;28;88856;-64
2022/06/22 08:47:32;;;;;;;12.48;3.17;;;22.50;53.10;;;;;;4919096;28;89982;-64
2022/06/22 08:50:02;;;;;;;6.63;2.80;;;22.50;52.90;;;;;;4957190;28;88105;-66
2022/06/22 08:52:40;;;;;;;22.90;3.38;;;22.50;52.80;;;;;;4969877;28;87880;-65
2022/06/22 08:55:44;;;;;;;6.40;2.53;;;22.50;53.10;;;;;;4970961;28;87770;-63
2022/06/22 08:58:37;;;;;;;10.50;3.00;;;22.50;52.90;;;;;;4968289;28;89271;-65
2022/06/22 09:01:06;;;;;;;7.40;2.58;;;22.50;52.70;;;;;;4968825;28;90226;-65
2022/06/22 09:04:10;;;;;;;8.55;3.17;;;22.50;52.60;;;;;;4962910;28;90742;-65
2022/06/22 09:06:53;;;;;;;5.97;2.53;;;22.50;52.30;;;;;;4970662;28;87726;-69
2022/06/22 09:09:37;;;;;;;9.65;2.40;;;22.50;52.40;;;;;;4967113;28;90251;-65
2022/06/22 09:12:18;;;;;;;6.07;2.28;;;22.50;52.30;;;;;;4970089;28;88629;-63
2022/06/22 09:15:22;;;;;;;11.00;2.90;;;22.50;52.10;;;;;;4964471;28;91533;-65
2022/06/22 09:17:47;;;;;;;9.38;2.38;;;22.50;52.20;;;;;;4951981;28;87633;-66
2022/06/22 09:20:54;;;;;;;4.68;2.00;;;22.50;52.10;;;;;;4968231;28;89920;-65
2022/06/22 09:23:44;;;;;;;10.32;2.38;;;22.50;52.20;;;;;;4950395;28;88496;-67
2022/06/22 09:26:34;;;;;;;6.40;2.47;;;22.50;52.80;;;;;;4967656;28;90050;-65
2022/06/22 09:29:08;;;;;;;6.72;2.70;;;22.50;52.20;;;;;;4951163;28;87393;-64
2022/06/22 09:31:39;;;;;;;6.53;2.17;;;22.50;52.20;;;;;;4951541;28;89308;-64
2022/06/22 09:34:23;;;;;;;5.55;2.13;;;22.50;52.10;;;;;;4970598;28;88525;-64
2022/06/22 09:37:24;;;;;;;7.65;2.58;;;22.50;52.20;;;;;;4985140;28;91337;-65
2022/06/22 09:40:08;;;;;;;6.63;1.85;;;22.50;52.20;;;;;;4949403;28;89150;-65
2022/06/22 09:43:00;;;;;;;6.88;1.80;;;22.50;52.10;;;;;;4970299;28;87584;-66
2022/06/22 09:45:52;;;;;;;7.63;1.85;;;22.50;52.00;;;;;;4970240;28;88468;-67
2022/06/22 09:48:39;;;;;;;6.10;2.10;;;22.50;51.70;;;;;;4970980;28;88070;-65
2022/06/22 09:51:23;;;;;;;5.05;2.00;;;22.50;51.80;;;;;;4970608;28;87883;-65
2022/06/22 09:57:38;;;;;;;3.72;1.80;;;22.50;51.70;;;;;;4968808;28;87659;-64
2022/06/22 10:00:12;;;;;;;6.45;2.00;;;22.60;51.80;;;;;;4952388;28;89031;-67
2022/06/22 10:03:06;;;;;;;7.10;2.00;;;22.50;51.80;;;;;;4968262;28;87346;-66
2022/06/22 10:05:32;;;;;;;3.95;1.92;;;22.50;51.90;;;;;;4969068;28;90096;-68
2022/06/22 10:08:23;;;;;;;6.03;2.10;;;22.50;51.80;;;;;;4967639;28;92476;-65
2022/06/22 10:11:03;;;;;;;5.40;1.92;;;22.50;51.80;;;;;;4970705;28;88220;-63
2022/06/22 10:13:41;;;;;;;8.00;2.20;;;22.50;51.90;;;;;;4952217;28;88329;-64
2022/06/22 10:16:09;;;;;;;4.20;2.08;;;22.60;51.90;;;;;;4967742;28;89447;-64
2022/06/22 10:19:14;;;;;;;5.68;2.17;;;22.50;51.60;;;;;;4951571;28;89291;-66
2022/06/22 10:22:01;;;;;;;4.28;1.90;;;22.50;51.50;;;;;;4967940;28;91078;-71
2022/06/22 10:24:49;;;;;;;5.72;1.98;;;22.60;51.60;;;;;;4968676;28;87655;-68
2022/06/22 10:27:27;;;;;;;8.05;2.03;;;22.60;51.90;;;;;;4968175;28;89009;-68
2022/06/22 10:30:17;;;;;;;9.77;2.50;;;22.60;52.10;;;;;;4970361;28;87669;-65
2022/06/22 10:33:03;;;;;;;12.13;2.17;;;22.60;52.50;;;;;;4969723;28;87773;-67
2022/06/22 10:35:46;;;;;;;7.97;1.67;;;22.60;52.30;;;;;;4967195;28;88191;-64
2022/06/22 10:38:53;;;;;;;6.13;2.22;;;22.60;52.80;;;;;;4967017;28;89300;-66
2022/06/22 10:45:09;;;;;;;4.95;1.92;;;22.60;52.70;;;;;;4969733;28;87815;-65
2022/06/22 10:47:37;;;;;;;;;;;22.60;52.60;;;;;;4967202;28;88231;-65
2022/06/22 10:50:03;;;;;;;9.32;2.35;;;22.70;52.30;;;;;;4970265;28;87392;-65
2022/06/22 10:52:37;;;;;;;12.68;2.47;;;22.70;52.70;;;;;;4960705;28;91096;-65
2022/06/22 10:55:03;;;;;;;13.50;2.10;;;22.70;52.80;;;;;;4965515;28;90183;-64
2022/06/22 10:57:43;;;;;;;12.30;2.45;;;22.70;53.20;;;;;;4966918;28;87405;-65
2022/06/22 11:00:42;;;;;;;6.82;1.70;;;22.70;53.00;;;;;;4967507;28;90565;-71
2022/06/22 11:03:13;;;;;;;10.00;2.20;;;22.70;52.80;;;;;;4966096;28;92137;-68
2022/06/22 11:05:47;;;;;;;11.07;2.05;;;22.70;52.70;;;;;;4967749;28;91668;-71
2022/06/22 11:08:27;;;;;;;8.55;2.05;;;22.60;52.70;;;;;;4943008;28;88110;-67
2022/06/22 11:10:56;;;;;;;13.02;2.35;;;22.60;52.50;;;;;;4966299;28;87676;-68
2022/06/22 11:13:40;;;;;;;3.53;2.17;;;22.60;52.50;;;;;;4966077;28;90675;-65
2022/06/22 11:16:24;;;;;;;14.32;2.25;;;22.60;52.60;;;;;;4967417;28;90790;-67
2022/06/22 11:19:01;;;;;;;5.97;2.33;;;22.60;52.60;;;;;;4966966;28;87521;-66
2022/06/22 11:21:27;;;;;;;7.13;1.77;;;22.70;52.80;;;;;;4966629;28;87091;-65
2022/06/22 11:24:29;;;;;;;6.65;1.83;;;22.60;52.80;;;;;;4968686;28;88148;-65
2022/06/22 11:33:27;;;;;;;16.73;2.60;;;22.60;52.70;;;;;;4968144;28;87843;-64
2022/06/22 11:36:17;;;;;;;7.28;2.10;;;22.60;52.60;;;;;;4966877;28;91199;-68
2022/06/22 11:38:54;;;;;;;;;;;22.70;52.60;;;;;;4968392;28;88094;-64
2022/06/22 11:41:47;;;;;;;10.38;2.47;;;22.60;52.50;;;;;;4968596;28;87468;-64
2022/06/22 11:44:38;;;;;;;7.03;2.15;;;22.60;52.40;;;;;;4966817;28;87981;-67
2022/06/22 11:47:13;;;;;;;10.95;2.03;;;22.70;52.40;;;;;;4959898;28;87976;-67
2022/06/22 11:50:08;;;;;;;10.82;2.00;;;22.70;51.80;;;;;;4965260;28;87794;-71
2022/06/22 11:52:47;;;;;;;5.13;1.95;;;22.70;51.80;;;;;;4947615;28;87660;-69
2022/06/22 11:55:27;;;;;;;6.15;2.10;;;22.60;52.00;;;;;;4964673;28;90236;-69
2022/06/22 11:58:08;;;;;;;7.35;2.10;;;22.60;52.00;;;;;;4947509;28;93043;-69
2022/06/22 12:00:52;;;;;;;8.38;1.88;;;22.60;52.00;;;;;;4964695;28;90560;-70
2022/06/22 12:03:40;;;;;;;8.93;2.10;;;22.60;52.10;;;;;;4963849;28;87804;-69
2022/06/22 12:06:08;;;;;;;7.38;2.20;;;22.60;52.10;;;;;;4964589;28;90329;-67
2022/06/22 12:09:02;;;;;;;11.47;2.30;;;22.60;52.00;;;;;;4963048;28;90657;-72
2022/06/22 12:11:48;;;;;;;10.85;2.38;;;22.60;52.00;;;;;;4961724;28;88512;-72
2022/06/22 12:18:02;;;;;;;7.72;1.77;;;22.70;52.00;;;;;;4964388;28;86528;-66
2022/06/22 12:20:45;;;;;;;8.60;2.00;;;22.60;52.20;;;;;;4958980;28;87948;-71
2022/06/22 12:23:14;;;;;;;7.15;2.40;;;22.70;52.50;;;;;;4963600;28;90546;-72
2022/06/22 12:26:06;;;;;;;10.30;2.33;;;22.70;53.00;;;;;;4965743;28;88382;-67
2022/06/22 12:28:53;;;;;;;8.13;2.03;;;22.70;53.30;;;;;;4963794;28;90984;-67
2022/06/22 12:31:21;;;;;;;8.90;2.22;;;22.70;53.30;;;;;;4966608;28;87873;-66
2022/06/22 12:34:14;;;;;;;12.77;2.03;;;22.70;53.30;;;;;;4967330;28;87490;-74
2022/06/22 12:36:45;;;;;;;4.20;2.00;;;22.70;53.60;;;;;;4967183;28;87856;-68
2022/06/22 12:39:16;;;;;;;15.05;2.40;;;22.70;52.90;;;;;;4968348;28;87574;-68
2022/06/22 12:42:01;;;;;;;5.28;1.75;;;22.70;52.80;;;;;;4961502;28;88750;-73
2022/06/22 12:44:51;;;;;;;6.40;2.30;;;22.70;52.30;;;;;;4967323;28;87755;-67
2022/06/22 12:47:51;;;;;;;8.32;2.05;;;22.70;52.30;;;;;;4967450;28;87389;-69
2022/06/22 12:50:47;;;;;;;5.18;1.83;;;22.70;52.10;;;;;;4969455;28;87436;-73
2022/06/22 12:53:59;;;;;;;9.52;2.20;;;22.70;52.00;;;;;;4968203;28;90304;-68
2022/06/22 12:56:50;;;;;;;6.82;2.10;;;22.70;52.10;;;;;;4926363;28;88891;-67
2022/06/22 12:59:35;;;;;;;12.07;2.65;;;22.80;52.20;;;;;;4965869;28;87408;-67
2022/06/22 13:02:04;;;;;;;7.78;2.00;;;22.80;52.60;;;;;;4964151;28;91310;-68
2022/06/22 13:04:35;;;;;;;5.95;1.90;;;22.80;52.50;;;;;;4953533;28;90722;-67
2022/06/22 13:07:05;;;;;;;5.72;1.80;;;22.80;52.60;;;;;;4952791;28;88924;-68
2022/06/22 13:09:32;;;;;;;6.45;1.83;;;22.80;52.40;;;;;;4949743;28;87679;-69
2022/06/22 13:12:04;;;;;;;6.60;2.00;;;22.80;52.20;;;;;;4968577;28;87029;-68
2022/06/22 13:14:32;;;;;;;5.35;1.80;;;22.80;52.00;;;;;;4967740;28;88408;-67
2022/06/22 13:17:15;;;;;;;6.63;2.23;;;22.70;52.40;;;;;;4965590;28;90827;-69
2022/06/22 13:20:06;;;;;;;4.60;1.67;;;22.80;52.50;;;;;;4964436;28;89169;-71
2022/06/22 13:23:06;;;;;;;7.25;1.65;;;22.70;52.40;;;;;;4965470;28;88590;-68
2022/06/22 13:25:45;;;;;;;5.20;1.77;;;22.80;52.30;;;;;;4951135;28;87806;-68
2022/06/22 13:28:34;;;;;;;8.30;2.50;;;22.70;52.00;;;;;;4964220;28;87972;-67
2022/06/22 13:31:26;;;;;;;7.13;2.13;;;22.80;52.00;;;;;;4966800;28;87562;-66
2022/06/22 13:33:58;;;;;;;4.60;2.03;;;22.80;51.80;;;;;;4964871;28;88027;-66
2022/06/22 13:36:37;;;;;;;22.27;4.30;;;22.80;51.70;;;;;;4967077;28;91521;-70
2022/06/22 13:39:17;;;;;;;26.27;6.32;;;22.80;52.00;;;;;;4954975;28;89565;-69
2022/06/22 13:41:59;;;;;;;40.17;10.18;;;22.80;52.00;;;;;;4968066;28;87100;-67
2022/06/22 13:44:56;;;;;;;32.03;8.00;;;22.80;52.30;;;;;;4947488;28;90072;-69
2022/06/22 13:47:38;;;;;;;19.10;7.20;;;22.80;52.00;;;;;;4962421;28;92428;-70
2022/06/22 13:50:34;;;;;;;24.13;5.28;;;22.80;51.60;;;;;;4965294;28;88257;-67
2022/06/22 13:53:20;;;;;;;16.38;5.18;;;22.80;51.30;;;;;;4978625;28;87700;-65
2022/06/22 13:55:56;;;;;;;11.90;4.57;;;22.80;51.50;;;;;;4967531;28;86958;-69
2022/06/22 13:58:42;;;;;;;14.75;4.80;;;22.80;51.40;;;;;;4967468;28;88165;-71
2022/06/22 14:01:31;;;;;;;19.63;5.57;;;22.80;51.40;;;;;;4949874;28;90783;-69
2022/06/22 14:04:07;;;;;;;23.75;7.20;;;22.80;51.90;;;;;;4951137;28;87499;-71
2022/06/22 14:06:51;;;;;;;17.10;5.53;;;22.80;52.30;;;;;;4951313;28;90609;-67
2022/06/22 14:09:30;;;;;;;20.58;5.63;;;22.90;52.40;;;;;;4965978;28;90891;-64
2022/06/22 14:12:02;;;;;;;;;;;22.90;52.10;;;;;;4968474;28;91738;-71
2022/06/22 14:14:37;;;;;;;15.13;4.63;;;22.90;51.70;;;;;;4970046;28;88193;-65